createdAt,value
2017-04-25T00:00:24.251Z,0
2017-04-25T00:01:24.051Z,0
2017-04-25T00:02:24.313Z,0
2017-04-25T00:03:24.321Z,0
2017-04-25T00:04:24.283Z,0
2017-04-25T00:05:24.284Z,0
2017-04-25T00:06:23.973Z,0
2017-04-25T00:07:24.031Z,0
2017-04-25T00:08:59.422Z,0
2017-04-25T00:09:24.581Z,0
2017-04-25T00:10:26.477Z,0
2017-04-25T00:11:24.500Z,0
2017-04-25T00:12:24.700Z,0
2017-04-25T00:13:24.878Z,0
2017-04-25T00:14:24.650Z,0
2017-04-25T00:15:24.435Z,0
2017-04-25T00:16:24.817Z,0
2017-04-25T00:17:24.721Z,0
2017-04-25T00:18:25.062Z,0
2017-04-25T00:19:24.734Z,0
2017-04-25T00:20:24.868Z,0
2017-04-25T00:21:24.571Z,0
2017-04-25T00:22:24.068Z,0
2017-04-25T00:23:24.203Z,0
2017-04-25T00:24:24.396Z,0
2017-04-25T00:25:24.394Z,0
2017-04-25T00:26:24.137Z,0
2017-04-25T00:27:24.405Z,0
2017-04-25T00:28:24.416Z,0
2017-04-25T00:29:24.423Z,0
2017-04-25T00:30:24.429Z,0
2017-04-25T00:31:24.438Z,0
2017-04-25T00:32:24.423Z,0
2017-04-25T00:33:24.576Z,0
2017-04-25T00:34:24.453Z,0
2017-04-25T00:35:24.186Z,0
2017-04-25T00:36:24.199Z,0
2017-04-25T00:37:24.463Z,0
2017-04-25T00:38:24.209Z,0
2017-04-25T00:39:24.220Z,0
2017-04-25T00:40:24.982Z,0
2017-04-25T00:41:24.742Z,0
2017-04-25T00:42:24.792Z,0
2017-04-25T00:43:25.028Z,0
2017-04-25T00:44:24.849Z,0
2017-04-25T00:45:24.837Z,0
2017-04-25T00:46:24.863Z,0
2017-04-25T00:47:24.800Z,0
2017-04-25T00:48:25.082Z,0
2017-04-25T00:49:24.846Z,0
2017-04-25T00:50:25.014Z,0
2017-04-25T00:51:24.811Z,0
2017-04-25T00:52:24.895Z,0
2017-04-25T00:53:24.861Z,0
2017-04-25T00:54:24.667Z,0
2017-04-25T00:55:24.919Z,0
2017-04-25T00:56:25.168Z,0
2017-04-25T00:57:24.698Z,0
2017-04-25T00:58:24.944Z,0
2017-04-25T00:59:24.901Z,0
2017-04-25T01:00:24.794Z,0
2017-04-25T01:01:25.286Z,0
2017-04-25T01:02:24.948Z,0
2017-04-25T01:03:25.128Z,0
2017-04-25T01:04:24.915Z,0
2017-04-25T01:05:25.575Z,0
2017-04-25T01:06:24.702Z,0
2017-04-25T01:07:26.398Z,0
2017-04-25T01:08:25.197Z,0
2017-04-25T01:09:24.969Z,0
2017-04-25T01:10:24.973Z,0
2017-04-25T01:11:25.009Z,0
2017-04-25T01:12:25.204Z,0
2017-04-25T01:13:24.969Z,0
2017-04-25T01:14:25.205Z,0
2017-04-25T01:15:24.755Z,0
2017-04-25T01:16:25.189Z,0
2017-04-25T01:17:25.036Z,0
2017-04-25T01:18:24.999Z,0
2017-04-25T01:19:24.751Z,0
2017-04-25T01:20:24.877Z,0
2017-04-25T01:21:25.592Z,0
2017-04-25T01:22:24.814Z,0
2017-04-25T01:23:24.832Z,0
2017-04-25T01:24:25.643Z,0
2017-04-25T01:25:25.063Z,0
2017-04-25T01:26:25.042Z,0
2017-04-25T01:27:24.817Z,0
2017-04-25T01:28:25.253Z,0
2017-04-25T01:29:24.907Z,0
2017-04-25T01:30:24.871Z,0
2017-04-25T01:31:25.269Z,0
2017-04-25T01:32:25.020Z,0
2017-04-25T01:33:24.957Z,0
2017-04-25T01:34:25.091Z,0
2017-04-25T01:35:25.085Z,0
2017-04-25T01:36:24.947Z,0
2017-04-25T01:37:24.903Z,0
2017-04-25T01:38:25.113Z,0
2017-04-25T01:39:25.117Z,0
2017-04-25T01:40:24.556Z,0
2017-04-25T01:41:27.147Z,0
2017-04-25T01:42:25.287Z,0
2017-04-25T01:43:25.050Z,0
2017-04-25T01:44:25.194Z,0
2017-04-25T01:45:25.344Z,0
2017-04-25T01:46:25.604Z,0
2017-04-25T01:47:25.214Z,0
2017-04-25T01:48:25.168Z,0
2017-04-25T01:49:25.023Z,0
2017-04-25T01:50:24.948Z,0
2017-04-25T01:51:24.957Z,0
2017-04-25T01:52:25.006Z,0
2017-04-25T01:53:25.189Z,0
2017-04-25T01:54:25.462Z,0
2017-04-25T01:55:25.051Z,0
2017-04-25T01:56:25.186Z,0
2017-04-25T01:57:25.616Z,0
2017-04-25T01:58:25.318Z,0
2017-04-25T01:59:25.431Z,0
2017-04-25T02:00:25.278Z,0
2017-04-25T02:01:25.062Z,0
2017-04-25T02:02:25.490Z,0
2017-04-25T02:03:25.252Z,0
2017-04-25T02:04:25.223Z,0
2017-04-25T02:05:25.423Z,0
2017-04-25T02:06:25.088Z,0
2017-04-25T02:07:25.470Z,0
2017-04-25T02:08:25.066Z,0
2017-04-25T02:09:25.665Z,0
2017-04-25T02:10:25.286Z,0
2017-04-25T02:11:25.692Z,0
2017-04-25T02:12:25.345Z,0
2017-04-25T02:13:25.381Z,0
2017-04-25T02:14:25.086Z,0
2017-04-25T02:15:25.345Z,0
2017-04-25T02:16:25.326Z,0
2017-04-25T02:17:25.580Z,0
2017-04-25T02:18:25.428Z,0
2017-04-25T02:19:25.550Z,0
2017-04-25T02:20:25.776Z,0
2017-04-25T02:21:25.145Z,0
2017-04-25T02:22:25.401Z,0
2017-04-25T02:23:25.413Z,0
2017-04-25T02:24:25.374Z,0
2017-04-25T02:25:25.621Z,0
2017-04-25T02:26:25.443Z,0
2017-04-25T02:27:25.362Z,0
2017-04-25T02:28:25.536Z,0
2017-04-25T02:29:25.546Z,0
2017-04-25T02:30:25.179Z,0
2017-04-25T02:31:25.183Z,0
2017-04-25T02:32:25.202Z,0
2017-04-25T02:33:26.079Z,0
2017-04-25T02:34:25.892Z,0
2017-04-25T02:35:26.768Z,0
2017-04-25T02:36:25.483Z,0
2017-04-25T02:37:25.300Z,0
2017-04-25T02:38:25.105Z,0
2017-04-25T02:39:25.430Z,0
2017-04-25T02:40:25.687Z,0
2017-04-25T02:41:25.708Z,0
2017-04-25T02:42:25.245Z,0
2017-04-25T02:43:25.681Z,0
2017-04-25T02:44:25.482Z,0
2017-04-25T02:45:25.461Z,0
2017-04-25T02:46:25.490Z,0
2017-04-25T02:47:25.746Z,0
2017-04-25T02:48:25.638Z,0
2017-04-25T02:49:25.919Z,0
2017-04-25T02:50:25.512Z,0
2017-04-25T02:51:25.325Z,0
2017-04-25T02:52:25.737Z,0
2017-04-25T02:53:25.588Z,0
2017-04-25T02:54:25.341Z,0
2017-04-25T02:55:25.324Z,0
2017-04-25T02:56:26.320Z,0
2017-04-25T02:57:25.561Z,0
2017-04-25T02:58:25.560Z,0
2017-04-25T02:59:25.609Z,0
2017-04-25T03:00:25.565Z,0
2017-04-25T03:01:26.624Z,0
2017-04-25T03:02:25.382Z,0
2017-04-25T03:03:25.768Z,0
2017-04-25T03:04:25.850Z,0
2017-04-25T03:05:25.810Z,0
2017-04-25T03:06:26.008Z,0
2017-04-25T03:07:25.642Z,0
2017-04-25T03:08:25.672Z,0
2017-04-25T03:09:25.068Z,0
2017-04-25T03:10:25.035Z,0
2017-04-25T03:11:25.052Z,0
2017-04-25T03:12:25.365Z,0
2017-04-25T03:13:25.437Z,0
2017-04-25T03:14:25.041Z,0
2017-04-25T03:15:25.048Z,0
2017-04-25T03:16:25.363Z,0
2017-04-25T03:17:25.052Z,0
2017-04-25T03:18:25.072Z,0
2017-04-25T03:19:25.065Z,0
2017-04-25T03:20:25.121Z,0
2017-04-25T03:21:25.635Z,0
2017-04-25T03:22:25.398Z,0
2017-04-25T03:23:25.459Z,0
2017-04-25T03:24:24.844Z,0
2017-04-25T03:25:25.488Z,0
2017-04-25T03:26:25.443Z,0
2017-04-25T03:27:25.569Z,0
2017-04-25T03:28:25.530Z,0
2017-04-25T03:29:25.534Z,0
2017-04-25T03:30:26.282Z,0
2017-04-25T03:31:25.158Z,0
2017-04-25T03:32:24.902Z,0
2017-04-25T03:33:25.738Z,0
2017-04-25T03:34:25.318Z,0
2017-04-25T03:35:25.721Z,0
2017-04-25T03:36:25.503Z,0
2017-04-25T03:37:25.706Z,0
2017-04-25T03:38:25.516Z,0
2017-04-25T03:39:25.548Z,0
2017-04-25T03:40:25.386Z,0
2017-04-25T03:41:25.439Z,0
2017-04-25T03:42:24.918Z,0
2017-04-25T03:43:25.856Z,0
2017-04-25T03:44:25.437Z,0
2017-04-25T03:45:25.578Z,0
2017-04-25T03:46:25.551Z,0
2017-04-25T03:47:25.340Z,0
2017-04-25T03:48:25.792Z,0
2017-04-25T03:49:24.950Z,0
2017-04-25T03:50:25.652Z,0
2017-04-25T03:51:25.012Z,0
2017-04-25T03:52:25.589Z,0
2017-04-25T03:53:25.810Z,0
2017-04-25T03:54:25.625Z,0
2017-04-25T03:55:25.627Z,0
2017-04-25T03:56:25.609Z,0
2017-04-25T03:57:25.379Z,0
2017-04-25T03:58:25.370Z,0
2017-04-25T03:59:25.302Z,0
2017-04-25T04:00:25.327Z,0
2017-04-25T04:01:25.686Z,0
2017-04-25T04:02:25.648Z,0
2017-04-25T04:03:25.681Z,0
2017-04-25T04:04:25.717Z,0
2017-04-25T04:05:25.893Z,0
2017-04-25T04:06:26.729Z,0
2017-04-25T04:07:25.945Z,4
2017-04-25T04:08:25.733Z,4
2017-04-25T04:09:25.063Z,4
2017-04-25T04:10:25.372Z,0
2017-04-25T04:11:25.922Z,0
2017-04-25T04:12:25.975Z,0
2017-04-25T04:13:25.443Z,0
2017-04-25T04:14:25.453Z,4
2017-04-25T04:15:25.406Z,4
2017-04-25T04:16:25.388Z,4
2017-04-25T04:17:25.730Z,4
2017-04-25T04:18:25.810Z,4
2017-04-25T04:19:25.727Z,4
2017-04-25T04:20:25.536Z,4
2017-04-25T04:21:25.982Z,8
2017-04-25T04:22:25.445Z,4
2017-04-25T04:23:25.679Z,4
2017-04-25T04:24:25.823Z,8
2017-04-25T04:25:26.009Z,4
2017-04-25T04:26:26.191Z,8
2017-04-25T04:27:26.088Z,8
2017-04-25T04:28:25.847Z,12
2017-04-25T04:29:25.381Z,12
2017-04-25T04:30:25.813Z,8
2017-04-25T04:31:25.886Z,8
2017-04-25T04:32:25.554Z,12
2017-04-25T04:33:25.823Z,12
2017-04-25T04:34:25.856Z,8
2017-04-25T04:35:26.083Z,12
2017-04-25T04:36:25.574Z,12
2017-04-25T04:37:26.165Z,12
2017-04-25T04:38:25.743Z,16
2017-04-25T04:39:25.234Z,16
2017-04-25T04:40:26.009Z,20
2017-04-25T04:41:26.121Z,24
2017-04-25T04:42:25.946Z,24
2017-04-25T04:43:25.880Z,20
2017-04-25T04:44:25.810Z,24
2017-04-25T04:45:25.995Z,24
2017-04-25T04:46:25.606Z,24
2017-04-25T04:47:25.927Z,20
2017-04-25T04:48:25.913Z,24
2017-04-25T04:49:26.138Z,28
2017-04-25T04:50:26.583Z,32
2017-04-25T04:51:25.972Z,28
2017-04-25T04:52:25.951Z,20
2017-04-25T04:53:25.627Z,24
2017-04-25T04:54:25.808Z,32
2017-04-25T04:55:25.946Z,44
2017-04-25T04:56:26.577Z,56
2017-04-25T04:57:25.958Z,60
2017-04-25T04:58:26.646Z,60
2017-04-25T04:59:25.978Z,60
2017-04-25T05:00:26.022Z,68
2017-04-25T05:01:26.185Z,84
2017-04-25T05:02:25.693Z,96
2017-04-25T05:03:26.246Z,88
2017-04-25T05:04:26.051Z,112
2017-04-25T05:05:25.896Z,128
2017-04-25T05:06:26.139Z,136
2017-04-25T05:07:26.115Z,120
2017-04-25T05:08:26.271Z,164
2017-04-25T05:09:26.264Z,156
2017-04-25T05:10:26.029Z,116
2017-04-25T05:11:26.091Z,124
2017-04-25T05:12:25.780Z,120
2017-04-25T05:13:25.764Z,116
2017-04-25T05:14:25.725Z,136
2017-04-25T05:15:26.763Z,136
2017-04-25T05:16:26.068Z,148
2017-04-25T05:17:25.823Z,148
2017-04-25T05:18:26.537Z,160
2017-04-25T05:19:26.061Z,144
2017-04-25T05:20:26.089Z,144
2017-04-25T05:21:26.519Z,160
2017-04-25T05:22:25.513Z,156
2017-04-25T05:23:26.110Z,184
2017-04-25T05:24:26.090Z,240
2017-04-25T05:25:26.093Z,256
2017-04-25T05:26:25.896Z,248
2017-04-25T05:27:26.103Z,264
2017-04-25T05:28:25.851Z,260
2017-04-25T05:29:26.166Z,260
2017-04-25T05:30:26.124Z,296
2017-04-25T05:31:25.866Z,316
2017-04-25T05:32:25.873Z,280
2017-04-25T05:33:25.828Z,276
2017-04-25T05:34:26.145Z,264
2017-04-25T05:35:26.152Z,248
2017-04-25T05:36:25.901Z,228
2017-04-25T05:37:25.853Z,236
2017-04-25T05:38:25.855Z,236
2017-04-25T05:39:26.281Z,236
2017-04-25T05:40:26.233Z,260
2017-04-25T05:41:26.188Z,276
2017-04-25T05:42:26.193Z,276
2017-04-25T05:43:25.889Z,280
2017-04-25T05:44:26.209Z,288
2017-04-25T05:45:26.205Z,272
2017-04-25T05:46:26.269Z,252
2017-04-25T05:47:26.267Z,228
2017-04-25T05:48:25.964Z,228
2017-04-25T05:49:26.287Z,240
2017-04-25T05:50:26.287Z,236
2017-04-25T05:51:26.246Z,232
2017-04-25T05:52:26.254Z,252
2017-04-25T05:53:26.362Z,240
2017-04-25T05:54:26.311Z,224
2017-04-25T05:55:26.267Z,216
2017-04-25T05:56:26.273Z,196
2017-04-25T05:57:26.068Z,184
2017-04-25T05:58:26.338Z,204
2017-04-25T05:59:26.342Z,200
2017-04-25T06:00:26.305Z,208
2017-04-25T06:01:26.299Z,200
2017-04-25T06:02:26.308Z,208
2017-04-25T06:03:26.365Z,188
2017-04-25T06:04:26.317Z,196
2017-04-25T06:05:26.375Z,212
2017-04-25T06:06:26.336Z,216
2017-04-25T06:07:26.335Z,252
2017-04-25T06:08:26.354Z,320
2017-04-25T06:09:26.351Z,476
2017-04-25T06:10:26.049Z,416
2017-04-25T06:11:26.411Z,296
2017-04-25T06:12:26.371Z,324
2017-04-25T06:13:26.420Z,388
2017-04-25T06:14:26.428Z,428
2017-04-25T06:15:26.124Z,364
2017-04-25T06:16:26.437Z,440
2017-04-25T06:17:26.063Z,476
2017-04-25T06:18:26.178Z,580
2017-04-25T06:19:26.125Z,744
2017-04-25T06:20:26.392Z,1156
2017-04-25T06:21:26.085Z,1484
2017-04-25T06:22:26.399Z,4704
2017-04-25T06:23:26.464Z,1520
2017-04-25T06:24:25.795Z,1512
2017-04-25T06:25:26.161Z,1732
2017-04-25T06:26:26.113Z,2584
2017-04-25T06:27:26.436Z,2228
2017-04-25T06:28:25.864Z,3532
2017-04-25T06:29:26.445Z,10264
2017-04-25T06:30:26.137Z,7828
2017-04-25T06:31:26.504Z,8676
2017-04-25T06:32:26.252Z,7572
2017-04-25T06:33:26.492Z,4904
2017-04-25T06:34:25.871Z,1376
2017-04-25T06:35:26.500Z,1360
2017-04-25T06:36:25.885Z,1184
2017-04-25T06:37:26.519Z,1320
2017-04-25T06:38:26.574Z,1060
2017-04-25T06:39:26.273Z,1264
2017-04-25T06:40:26.532Z,628
2017-04-25T06:41:26.547Z,404
2017-04-25T06:42:25.922Z,332
2017-04-25T06:43:26.242Z,300
2017-04-25T06:44:26.567Z,236
2017-04-25T06:45:26.617Z,216
2017-04-25T06:46:26.571Z,172
2017-04-25T06:47:26.578Z,156
2017-04-25T06:48:26.582Z,144
2017-04-25T06:49:26.594Z,140
2017-04-25T06:50:26.593Z,128
2017-04-25T06:51:26.653Z,124
2017-04-25T06:52:26.604Z,144
2017-04-25T06:53:26.665Z,188
2017-04-25T06:54:26.624Z,228
2017-04-25T06:55:26.707Z,244
2017-04-25T06:56:26.649Z,244
2017-04-25T06:57:26.639Z,300
2017-04-25T06:58:26.693Z,356
2017-04-25T06:59:26.344Z,440
2017-04-25T07:00:26.763Z,568
2017-04-25T07:01:26.658Z,736
2017-04-25T07:02:26.410Z,800
2017-04-25T07:03:26.673Z,628
2017-04-25T07:04:26.684Z,640
2017-04-25T07:05:26.112Z,548
2017-04-25T07:06:26.121Z,540
2017-04-25T07:07:26.713Z,668
2017-04-25T07:08:26.711Z,1104
2017-04-25T07:09:26.406Z,1692
2017-04-25T07:10:26.696Z,4808
2017-04-25T07:11:26.751Z,2768
2017-04-25T07:12:41.282Z,2460
2017-04-25T07:13:26.771Z,2196
2017-04-25T07:14:26.773Z,1984
2017-04-25T07:15:26.466Z,1896
2017-04-25T07:16:26.833Z,1844
2017-04-25T07:17:26.528Z,1932
2017-04-25T07:18:26.761Z,1980
2017-04-25T07:19:26.750Z,1968
2017-04-25T07:20:26.813Z,2004
2017-04-25T07:21:26.457Z,2016
2017-04-25T07:22:26.509Z,2048
2017-04-25T07:23:26.516Z,2068
2017-04-25T07:24:26.782Z,2092
2017-04-25T07:25:26.790Z,2076
2017-04-25T07:26:26.942Z,2064
2017-04-25T07:27:26.545Z,2036
2017-04-25T07:28:26.860Z,1992
2017-04-25T07:29:26.503Z,1904
2017-04-25T07:30:26.613Z,1840
2017-04-25T07:31:26.571Z,1732
2017-04-25T07:32:26.531Z,1680
2017-04-25T07:33:26.527Z,1572
2017-04-25T07:34:26.537Z,1560
2017-04-25T07:35:26.596Z,1496
2017-04-25T07:36:26.964Z,1504
2017-04-25T07:37:26.557Z,1632
2017-04-25T07:38:26.561Z,1508
2017-04-25T07:39:26.883Z,1528
2017-04-25T07:40:26.886Z,1652
2017-04-25T07:41:26.630Z,1532
2017-04-25T07:42:26.904Z,1592
2017-04-25T07:43:26.904Z,1452
2017-04-25T07:44:26.914Z,1468
2017-04-25T07:45:26.925Z,1748
2017-04-25T07:46:26.976Z,1672
2017-04-25T07:47:26.006Z,1536
2017-04-25T07:48:26.675Z,1384
2017-04-25T07:49:26.322Z,1496
2017-04-25T07:50:26.380Z,1508
2017-04-25T07:51:26.700Z,1400
2017-04-25T07:52:26.965Z,1436
2017-04-25T07:53:27.023Z,1696
2017-04-25T07:54:26.986Z,1432
2017-04-25T07:55:26.992Z,1336
2017-04-25T07:56:26.676Z,1356
2017-04-25T07:57:26.997Z,1504
2017-04-25T07:58:26.746Z,1548
2017-04-25T07:59:27.065Z,1600
2017-04-25T08:00:26.707Z,1504
2017-04-25T08:01:26.503Z,1476
2017-04-25T08:02:27.031Z,1576
2017-04-25T08:03:26.416Z,1620
2017-04-25T08:04:27.045Z,1636
2017-04-25T08:05:26.840Z,1488
2017-04-25T08:06:27.167Z,1248
2017-04-25T08:07:27.068Z,1148
2017-04-25T08:08:27.080Z,1320
2017-04-25T08:09:27.133Z,1304
2017-04-25T08:10:27.191Z,1292
2017-04-25T08:11:27.197Z,1220
2017-04-25T08:12:26.786Z,920
2017-04-25T08:13:26.846Z,832
2017-04-25T08:14:27.122Z,832
2017-04-25T08:15:27.219Z,864
2017-04-25T08:16:27.180Z,908
2017-04-25T08:17:27.198Z,972
2017-04-25T08:18:26.889Z,1024
2017-04-25T08:19:27.554Z,1056
2017-04-25T08:20:26.586Z,1176
2017-04-25T08:21:26.591Z,1140
2017-04-25T08:22:26.546Z,1084
2017-04-25T08:23:27.191Z,1120
2017-04-25T08:24:26.924Z,1080
2017-04-25T08:25:27.248Z,1040
2017-04-25T08:26:27.197Z,1044
2017-04-25T08:27:27.207Z,1060
2017-04-25T08:28:26.960Z,1044
2017-04-25T08:29:27.220Z,1092
2017-04-25T08:30:27.014Z,1144
2017-04-25T08:31:27.230Z,1248
2017-04-25T08:32:27.243Z,1272
2017-04-25T08:33:27.256Z,1108
2017-04-25T08:34:27.256Z,1128
2017-04-25T08:35:27.053Z,1396
2017-04-25T08:36:26.966Z,1520
2017-04-25T08:37:26.963Z,1668
2017-04-25T08:38:26.666Z,1984
2017-04-25T08:39:27.361Z,1836
2017-04-25T08:40:27.352Z,1724
2017-04-25T08:41:27.353Z,1528
2017-04-25T08:42:27.313Z,1244
2017-04-25T08:43:27.007Z,992
2017-04-25T08:44:26.702Z,872
2017-04-25T08:45:27.022Z,956
2017-04-25T08:46:27.080Z,1072
2017-04-25T08:47:27.394Z,1220
2017-04-25T08:48:27.049Z,1404
2017-04-25T08:49:27.053Z,1604
2017-04-25T08:50:27.370Z,1320
2017-04-25T08:51:27.434Z,1904
2017-04-25T08:52:27.434Z,2344
2017-04-25T08:53:27.124Z,1860
2017-04-25T08:54:27.447Z,2332
2017-04-25T08:55:27.457Z,1804
2017-04-25T08:56:27.565Z,1780
2017-04-25T08:57:27.110Z,1636
2017-04-25T08:58:27.167Z,1472
2017-04-25T08:59:27.490Z,1472
2017-04-25T09:00:27.125Z,1256
2017-04-25T09:01:27.138Z,1456
2017-04-25T09:02:27.192Z,1312
2017-04-25T09:03:27.460Z,1528
2017-04-25T09:04:27.778Z,1396
2017-04-25T09:05:27.480Z,1332
2017-04-25T09:06:27.274Z,1628
2017-04-25T09:07:27.537Z,2256
2017-04-25T09:08:27.499Z,1480
2017-04-25T09:09:27.508Z,1324
2017-04-25T09:10:27.515Z,2076
2017-04-25T09:11:27.518Z,1436
2017-04-25T09:12:27.275Z,1460
2017-04-25T09:13:27.272Z,1496
2017-04-25T09:14:27.596Z,1464
2017-04-25T09:15:27.548Z,1472
2017-04-25T09:16:27.551Z,1316
2017-04-25T09:17:27.249Z,1336
2017-04-25T09:18:27.620Z,1536
2017-04-25T09:19:27.575Z,1680
2017-04-25T09:20:27.580Z,1596
2017-04-25T09:21:27.588Z,1368
2017-04-25T09:22:27.339Z,1200
2017-04-25T09:23:27.290Z,1096
2017-04-25T09:24:27.301Z,1132
2017-04-25T09:25:27.615Z,992
2017-04-25T09:26:27.361Z,824
2017-04-25T09:27:27.319Z,736
2017-04-25T09:28:27.330Z,792
2017-04-25T09:29:27.644Z,880
2017-04-25T09:30:27.655Z,1120
2017-04-25T09:31:27.664Z,1236
2017-04-25T09:32:27.042Z,1272
2017-04-25T09:33:27.361Z,1404
2017-04-25T09:34:27.371Z,1228
2017-04-25T09:35:27.694Z,1260
2017-04-25T09:36:27.434Z,1272
2017-04-25T09:37:27.698Z,1408
2017-04-25T09:38:27.709Z,1524
2017-04-25T09:39:27.772Z,1856
2017-04-25T09:40:27.414Z,2404
2017-04-25T09:41:27.423Z,1500
2017-04-25T09:42:27.739Z,1404
2017-04-25T09:43:27.123Z,1472
2017-04-25T09:44:27.855Z,1420
2017-04-25T09:45:27.760Z,1444
2017-04-25T09:46:27.169Z,1400
2017-04-25T09:47:27.773Z,1416
2017-04-25T09:48:27.525Z,1456
2017-04-25T09:49:27.789Z,1340
2017-04-25T09:50:27.901Z,1488
2017-04-25T09:51:27.930Z,1492
2017-04-25T09:52:27.810Z,1308
2017-04-25T09:53:27.870Z,1308
2017-04-25T09:54:27.873Z,1340
2017-04-25T09:55:28.130Z,1276
2017-04-25T09:56:26.904Z,1784
2017-04-25T09:57:27.848Z,1168
2017-04-25T09:58:27.592Z,1148
2017-04-25T09:59:27.855Z,1176
2017-04-25T10:00:27.937Z,1248
2017-04-25T10:01:27.561Z,1052
2017-04-25T10:02:27.581Z,1016
2017-04-25T10:03:27.574Z,1232
2017-04-25T10:04:27.634Z,1268
2017-04-25T10:05:27.739Z,1316
2017-04-25T10:06:27.955Z,1372
2017-04-25T10:07:27.917Z,1688
2017-04-25T10:08:27.977Z,1524
2017-04-25T10:09:27.623Z,1320
2017-04-25T10:10:27.315Z,1204
2017-04-25T10:11:27.633Z,1248
2017-04-25T10:12:28.002Z,1212
2017-04-25T10:13:27.960Z,1072
2017-04-25T10:14:27.978Z,1848
2017-04-25T10:15:27.663Z,1316
2017-04-25T10:16:28.030Z,1420
2017-04-25T10:17:28.084Z,1580
2017-04-25T10:18:27.692Z,1432
2017-04-25T10:19:28.005Z,1360
2017-04-25T10:20:27.700Z,1196
2017-04-25T10:21:27.704Z,1088
2017-04-25T10:22:28.072Z,972
2017-04-25T10:23:28.079Z,964
2017-04-25T10:24:27.420Z,800
2017-04-25T10:25:27.783Z,784
2017-04-25T10:26:28.109Z,984
2017-04-25T10:27:27.437Z,1048
2017-04-25T10:28:28.096Z,1024
2017-04-25T10:29:28.119Z,864
2017-04-25T10:30:28.130Z,708
2017-04-25T10:31:27.780Z,692
2017-04-25T10:32:27.827Z,672
2017-04-25T10:33:27.843Z,696
2017-04-25T10:34:27.486Z,636
2017-04-25T10:35:28.163Z,580
2017-04-25T10:36:27.856Z,532
2017-04-25T10:37:27.508Z,524
2017-04-25T10:38:28.145Z,580
2017-04-25T10:39:28.197Z,696
2017-04-25T10:40:28.281Z,696
2017-04-25T10:41:27.586Z,732
2017-04-25T10:42:27.855Z,728
2017-04-25T10:43:28.220Z,800
2017-04-25T10:44:27.965Z,1096
2017-04-25T10:45:27.981Z,1448
2017-04-25T10:46:28.184Z,988
2017-04-25T10:47:27.934Z,1464
2017-04-25T10:48:27.891Z,1508
2017-04-25T10:49:28.265Z,1652
2017-04-25T10:50:27.906Z,1648
2017-04-25T10:51:28.289Z,1676
2017-04-25T10:52:28.021Z,1728
2017-04-25T10:53:28.242Z,1468
2017-04-25T10:54:27.942Z,1720
2017-04-25T10:55:27.727Z,1092
2017-04-25T10:56:28.041Z,972
2017-04-25T10:57:27.955Z,860
2017-04-25T10:58:27.656Z,1540
2017-04-25T10:59:28.291Z,1536
2017-04-25T11:00:28.334Z,980
2017-04-25T11:01:27.985Z,1176
2017-04-25T11:02:28.299Z,1232
2017-04-25T11:03:28.314Z,1212
2017-04-25T11:04:28.312Z,1048
2017-04-25T11:05:28.423Z,1856
2017-04-25T11:06:27.761Z,1024
2017-04-25T11:07:27.722Z,928
2017-04-25T11:08:28.399Z,844
2017-04-25T11:09:28.415Z,712
2017-04-25T11:10:28.455Z,644
2017-04-25T11:11:28.417Z,648
2017-04-25T11:12:28.057Z,672
2017-04-25T11:13:28.373Z,696
2017-04-25T11:14:27.765Z,760
2017-04-25T11:15:28.521Z,700
2017-04-25T11:16:28.119Z,680
2017-04-25T11:17:28.454Z,1012
2017-04-25T11:18:28.462Z,1792
2017-04-25T11:19:28.416Z,1836
2017-04-25T11:20:28.426Z,1900
2017-04-25T11:21:28.432Z,1860
2017-04-25T11:22:28.177Z,1772
2017-04-25T11:23:28.237Z,1756
2017-04-25T11:24:28.198Z,1848
2017-04-25T11:25:28.151Z,1900
2017-04-25T11:26:28.515Z,1780
2017-04-25T11:27:28.574Z,1212
2017-04-25T11:28:28.528Z,2100
2017-04-25T11:29:28.492Z,1540
2017-04-25T11:30:28.235Z,2024
2017-04-25T11:31:28.243Z,2004
2017-04-25T11:32:28.516Z,2100
2017-04-25T11:33:28.524Z,2088
2017-04-25T11:34:28.579Z,1328
2017-04-25T11:35:28.579Z,1092
2017-04-25T11:36:28.538Z,1140
2017-04-25T11:37:28.306Z,1108
2017-04-25T11:38:28.243Z,1288
2017-04-25T11:39:28.616Z,2024
2017-04-25T11:40:28.569Z,2016
2017-04-25T11:41:28.265Z,1616
2017-04-25T11:42:28.592Z,2128
2017-04-25T11:43:28.688Z,2072
2017-04-25T11:44:28.292Z,1624
2017-04-25T11:45:28.652Z,1236
2017-04-25T11:46:28.661Z,1176
2017-04-25T11:47:28.359Z,968
2017-04-25T11:48:28.415Z,796
2017-04-25T11:49:28.114Z,672
2017-04-25T11:50:28.072Z,572
2017-04-25T11:51:28.647Z,488
2017-04-25T11:52:28.703Z,396
2017-04-25T11:53:28.762Z,336
2017-04-25T11:54:28.722Z,304
2017-04-25T11:55:28.672Z,360
2017-04-25T11:56:28.061Z,472
2017-04-25T11:57:28.428Z,588
2017-04-25T11:58:28.703Z,1132
2017-04-25T11:59:28.398Z,1240
2017-04-25T12:00:28.407Z,1500
2017-04-25T12:01:28.718Z,1812
2017-04-25T12:02:28.409Z,1748
2017-04-25T12:03:28.427Z,1648
2017-04-25T12:04:28.477Z,1568
2017-04-25T12:05:28.490Z,1500
2017-04-25T12:06:28.448Z,1396
2017-04-25T12:07:28.754Z,1292
2017-04-25T12:08:28.509Z,1212
2017-04-25T12:09:28.464Z,1148
2017-04-25T12:10:28.801Z,1092
2017-04-25T12:11:28.839Z,1048
2017-04-25T12:12:28.486Z,1016
2017-04-25T12:13:28.541Z,992
2017-04-25T12:14:28.497Z,968
2017-04-25T12:15:28.602Z,936
2017-04-25T12:16:28.560Z,484
2017-04-25T12:17:28.877Z,844
2017-04-25T12:18:28.921Z,520
2017-04-25T12:19:28.532Z,936
2017-04-25T12:20:28.540Z,896
2017-04-25T12:21:28.958Z,932
2017-04-25T12:22:28.089Z,940
2017-04-25T12:23:28.307Z,920
2017-04-25T12:24:28.571Z,992
2017-04-25T12:25:28.576Z,1076
2017-04-25T12:26:28.997Z,1128
2017-04-25T12:27:28.898Z,1204
2017-04-25T12:28:28.954Z,876
2017-04-25T12:29:28.604Z,1100
2017-04-25T12:30:28.998Z,1144
2017-04-25T12:31:28.987Z,932
2017-04-25T12:32:28.935Z,1028
2017-04-25T12:33:28.939Z,1216
2017-04-25T12:34:29.016Z,1112
2017-04-25T12:35:28.955Z,968
2017-04-25T12:36:28.703Z,916
2017-04-25T12:37:29.019Z,936
2017-04-25T12:38:28.713Z,904
2017-04-25T12:39:28.465Z,772
2017-04-25T12:40:28.365Z,640
2017-04-25T12:41:28.691Z,612
2017-04-25T12:42:28.791Z,636
2017-04-25T12:43:29.108Z,632
2017-04-25T12:44:28.710Z,644
2017-04-25T12:45:28.815Z,672
2017-04-25T12:46:29.059Z,752
2017-04-25T12:47:29.037Z,816
2017-04-25T12:48:28.830Z,868
2017-04-25T12:49:28.739Z,896
2017-04-25T12:50:29.068Z,904
2017-04-25T12:51:28.755Z,892
2017-04-25T12:52:29.071Z,880
2017-04-25T12:53:28.820Z,880
2017-04-25T12:54:28.775Z,884
2017-04-25T12:55:28.788Z,952
2017-04-25T12:56:28.787Z,1000
2017-04-25T12:57:29.217Z,1000
2017-04-25T12:58:28.855Z,980
2017-04-25T12:59:28.809Z,980
2017-04-25T13:00:28.820Z,944
2017-04-25T13:01:28.823Z,924
2017-04-25T13:02:29.293Z,976
2017-04-25T13:03:28.844Z,1112
2017-04-25T13:04:28.540Z,1044
2017-04-25T13:05:29.261Z,1076
2017-04-25T13:06:28.858Z,1104
2017-04-25T13:07:29.228Z,1028
2017-04-25T13:08:28.873Z,1020
2017-04-25T13:09:29.246Z,1044
2017-04-25T13:10:29.248Z,1096
2017-04-25T13:11:28.580Z,968
2017-04-25T13:12:29.217Z,940
2017-04-25T13:13:29.273Z,924
2017-04-25T13:14:29.279Z,988
2017-04-25T13:15:29.231Z,1148
2017-04-25T13:16:29.242Z,1120
2017-04-25T13:17:28.989Z,1124
2017-04-25T13:18:29.244Z,1008
2017-04-25T13:19:29.361Z,924
2017-04-25T13:20:28.659Z,996
2017-04-25T13:21:28.978Z,908
2017-04-25T13:22:29.085Z,852
2017-04-25T13:23:28.981Z,816
2017-04-25T13:24:28.825Z,792
2017-04-25T13:25:29.040Z,664
2017-04-25T13:26:29.039Z,664
2017-04-25T13:27:29.362Z,644
2017-04-25T13:28:29.326Z,672
2017-04-25T13:29:29.360Z,836
2017-04-25T13:30:29.376Z,908
2017-04-25T13:31:29.077Z,824
2017-04-25T13:32:29.108Z,728
2017-04-25T13:33:29.382Z,672
2017-04-25T13:34:29.474Z,604
2017-04-25T13:35:29.489Z,600
2017-04-25T13:36:29.071Z,600
2017-04-25T13:37:29.127Z,580
2017-04-25T13:38:29.078Z,560
2017-04-25T13:39:29.089Z,660
2017-04-25T13:40:29.094Z,680
2017-04-25T13:41:29.105Z,680
2017-04-25T13:42:28.535Z,688
2017-04-25T13:43:28.808Z,612
2017-04-25T13:44:29.484Z,544
2017-04-25T13:45:29.441Z,532
2017-04-25T13:46:29.549Z,560
2017-04-25T13:47:29.249Z,608
2017-04-25T13:48:29.508Z,668
2017-04-25T13:49:29.473Z,704
2017-04-25T13:50:29.218Z,732
2017-04-25T13:51:29.482Z,780
2017-04-25T13:52:28.919Z,816
2017-04-25T13:53:29.549Z,808
2017-04-25T13:54:29.509Z,860
2017-04-25T13:55:29.518Z,936